sensor_id;sensor_type;location;lat;lon;timestamp;P1;durP1;ratioP1;P2;durP2;ratioP2
6665;SDS011;3369;49.906;8.598;2022-09-09T00:01:58;4.70;;;1.57;;
6665;SDS011;3369;49.906;8.598;2022-09-09T00:04:25;2.07;;;0.77;;
6665;SDS011;3369;49.906;8.598;2022-09-09T00:09:29;2.43;;;1.00;;
6665;SDS011;3369;49.906;8.598;2022-09-09T00:12:12;2.50;;;1.00;;
6665;SDS011;3369;49.906;8.598;2022-09-09T00:14:45;2.47;;;1.10;;
6665;SDS011;3369;49.906;8.598;2022-09-09T00:17:22;1.07;;;0.73;;
6665;SDS011;3369;49.906;8.598;2022-09-09T00:22:38;2.50;;;0.80;;
6665;SDS011;3369;49.906;8.598;2022-09-09T00:25:11;1.60;;;1.10;;
6665;SDS011;3369;49.906;8.598;2022-09-09T00:27:52;3.07;;;1.00;;
6665;SDS011;3369;49.906;8.598;2022-09-09T00:30:26;2.37;;;0.90;;
6665;SDS011;3369;49.906;8.598;2022-09-09T00:32:59;3.70;;;0.97;;
6665;SDS011;3369;49.906;8.598;2022-09-09T00:35:40;1.03;;;0.80;;
6665;SDS011;3369;49.906;8.598;2022-09-09T00:38:22;2.13;;;1.10;;
6665;SDS011;3369;49.906;8.598;2022-09-09T00:44:02;3.77;;;1.00;;
6665;SDS011;3369;49.906;8.598;2022-09-09T00:46:55;2.20;;;1.10;;
6665;SDS011;3369;49.906;8.598;2022-09-09T00:52:32;1.90;;;1.03;;
6665;SDS011;3369;49.906;8.598;2022-09-09T00:55:45;3.10;;;1.23;;
6665;SDS011;3369;49.906;8.598;2022-09-09T00:58:18;3.43;;;1.03;;
6665;SDS011;3369;49.906;8.598;2022-09-09T01:00:45;1.67;;;0.93;;
6665;SDS011;3369;49.906;8.598;2022-09-09T01:06:20;3.27;;;0.97;;
6665;SDS011;3369;49.906;8.598;2022-09-09T01:12:09;1.30;;;0.90;;
6665;SDS011;3369;49.906;8.598;2022-09-09T01:20:25;1.47;;;1.00;;
6665;SDS011;3369;49.906;8.598;2022-09-09T01:28:33;1.10;;;1.00;;
6665;SDS011;3369;49.906;8.598;2022-09-09T01:31:02;1.27;;;0.90;;
6665;SDS011;3369;49.906;8.598;2022-09-09T01:33:30;3.13;;;1.00;;
6665;SDS011;3369;49.906;8.598;2022-09-09T01:57:27;2.10;;;1.00;;
6665;SDS011;3369;49.906;8.598;2022-09-09T02:00:09;1.03;;;0.97;;
6665;SDS011;3369;49.906;8.598;2022-09-09T02:08:09;3.53;;;1.40;;
6665;SDS011;3369;49.906;8.598;2022-09-09T02:13:16;4.00;;;1.53;;
6665;SDS011;3369;49.906;8.598;2022-09-09T02:15:52;1.77;;;1.10;;
6665;SDS011;3369;49.906;8.598;2022-09-09T02:18:27;1.73;;;1.40;;
6665;SDS011;3369;49.906;8.598;2022-09-09T02:20:57;4.40;;;1.37;;
6665;SDS011;3369;49.906;8.598;2022-09-09T02:23:24;4.27;;;1.40;;
6665;SDS011;3369;49.906;8.598;2022-09-09T02:25:50;2.87;;;1.40;;
6665;SDS011;3369;49.906;8.598;2022-09-09T02:28:18;4.83;;;1.30;;
6665;SDS011;3369;49.906;8.598;2022-09-09T02:30:46;3.07;;;1.40;;
6665;SDS011;3369;49.906;8.598;2022-09-09T02:33:18;4.60;;;1.60;;
6665;SDS011;3369;49.906;8.598;2022-09-09T02:35:44;3.17;;;1.20;;
6665;SDS011;3369;49.906;8.598;2022-09-09T02:38:12;2.33;;;1.40;;
6665;SDS011;3369;49.906;8.598;2022-09-09T02:40:40;3.37;;;1.30;;
6665;SDS011;3369;49.906;8.598;2022-09-09T02:43:05;3.70;;;1.30;;
6665;SDS011;3369;49.906;8.598;2022-09-09T02:45:38;3.80;;;1.30;;
6665;SDS011;3369;49.906;8.598;2022-09-09T02:48:12;2.20;;;1.27;;
6665;SDS011;3369;49.906;8.598;2022-09-09T02:51:00;4.50;;;1.50;;
6665;SDS011;3369;49.906;8.598;2022-09-09T02:56:13;3.87;;;1.50;;
6665;SDS011;3369;49.906;8.598;2022-09-09T02:58:42;2.80;;;1.10;;
6665;SDS011;3369;49.906;8.598;2022-09-09T03:01:08;4.00;;;1.43;;
6665;SDS011;3369;49.906;8.598;2022-09-09T03:03:34;3.20;;;1.10;;
6665;SDS011;3369;49.906;8.598;2022-09-09T03:06:00;1.73;;;1.20;;
6665;SDS011;3369;49.906;8.598;2022-09-09T03:08:25;2.40;;;1.20;;
6665;SDS011;3369;49.906;8.598;2022-09-09T03:10:53;7.27;;;1.57;;
6665;SDS011;3369;49.906;8.598;2022-09-09T03:13:19;2.27;;;1.20;;
6665;SDS011;3369;49.906;8.598;2022-09-09T03:15:45;2.53;;;1.30;;
6665;SDS011;3369;49.906;8.598;2022-09-09T03:18:10;1.37;;;1.03;;
6665;SDS011;3369;49.906;8.598;2022-09-09T03:20:36;1.77;;;1.27;;
6665;SDS011;3369;49.906;8.598;2022-09-09T03:23:01;4.23;;;1.37;;
6665;SDS011;3369;49.906;8.598;2022-09-09T03:25:27;2.57;;;1.50;;
6665;SDS011;3369;49.906;8.598;2022-09-09T03:27:54;1.27;;;1.17;;
6665;SDS011;3369;49.906;8.598;2022-09-09T03:30:23;2.30;;;1.50;;
6665;SDS011;3369;49.906;8.598;2022-09-09T03:32:50;1.63;;;1.13;;
6665;SDS011;3369;49.906;8.598;2022-09-09T03:35:17;1.67;;;1.00;;
6665;SDS011;3369;49.906;8.598;2022-09-09T03:37:43;3.40;;;1.40;;
6665;SDS011;3369;49.906;8.598;2022-09-09T03:40:09;4.30;;;1.37;;
6665;SDS011;3369;49.906;8.598;2022-09-09T03:42:35;3.07;;;1.40;;
6665;SDS011;3369;49.906;8.598;2022-09-09T03:45:02;4.97;;;1.47;;
6665;SDS011;3369;49.906;8.598;2022-09-09T03:47:32;2.40;;;1.63;;
6665;SDS011;3369;49.906;8.598;2022-09-09T03:49:58;2.57;;;1.23;;
6665;SDS011;3369;49.906;8.598;2022-09-09T03:52:23;2.90;;;1.20;;
6665;SDS011;3369;49.906;8.598;2022-09-09T03:54:51;2.67;;;1.20;;
6665;SDS011;3369;49.906;8.598;2022-09-09T03:57:18;2.03;;;1.03;;
6665;SDS011;3369;49.906;8.598;2022-09-09T03:59:43;2.13;;;1.50;;
6665;SDS011;3369;49.906;8.598;2022-09-09T04:02:09;2.57;;;1.20;;
6665;SDS011;3369;49.906;8.598;2022-09-09T04:04:35;3.33;;;1.20;;
6665;SDS011;3369;49.906;8.598;2022-09-09T04:07:01;3.97;;;1.53;;
6665;SDS011;3369;49.906;8.598;2022-09-09T04:09:27;4.97;;;1.47;;
6665;SDS011;3369;49.906;8.598;2022-09-09T04:11:53;1.77;;;1.33;;
6665;SDS011;3369;49.906;8.598;2022-09-09T04:14:20;1.70;;;1.10;;
6665;SDS011;3369;49.906;8.598;2022-09-09T04:16:46;3.40;;;1.30;;
6665;SDS011;3369;49.906;8.598;2022-09-09T04:19:12;1.93;;;1.20;;
6665;SDS011;3369;49.906;8.598;2022-09-09T04:21:39;2.57;;;1.03;;
6665;SDS011;3369;49.906;8.598;2022-09-09T04:24:06;1.37;;;1.10;;
6665;SDS011;3369;49.906;8.598;2022-09-09T04:26:35;5.47;;;1.40;;
6665;SDS011;3369;49.906;8.598;2022-09-09T04:29:02;2.47;;;1.10;;
6665;SDS011;3369;49.906;8.598;2022-09-09T04:31:28;1.93;;;1.10;;
6665;SDS011;3369;49.906;8.598;2022-09-09T04:33:54;3.67;;;1.43;;
6665;SDS011;3369;49.906;8.598;2022-09-09T04:36:19;1.60;;;1.30;;
6665;SDS011;3369;49.906;8.598;2022-09-09T04:38:45;3.00;;;1.17;;
6665;SDS011;3369;49.906;8.598;2022-09-09T04:41:13;2.17;;;1.10;;
6665;SDS011;3369;49.906;8.598;2022-09-09T04:43:39;2.77;;;1.27;;
6665;SDS011;3369;49.906;8.598;2022-09-09T04:46:05;3.77;;;1.30;;
6665;SDS011;3369;49.906;8.598;2022-09-09T04:48:31;1.93;;;1.13;;
6665;SDS011;3369;49.906;8.598;2022-09-09T04:51:01;2.97;;;1.40;;
6665;SDS011;3369;49.906;8.598;2022-09-09T04:53:29;2.60;;;1.60;;
6665;SDS011;3369;49.906;8.598;2022-09-09T04:56:02;4.00;;;1.27;;
6665;SDS011;3369;49.906;8.598;2022-09-09T04:58:35;3.43;;;1.30;;
6665;SDS011;3369;49.906;8.598;2022-09-09T05:01:35;3.13;;;1.27;;
6665;SDS011;3369;49.906;8.598;2022-09-09T05:03:54;4.30;;;1.33;;
6665;SDS011;3369;49.906;8.598;2022-09-09T05:06:20;2.27;;;1.00;;
6665;SDS011;3369;49.906;8.598;2022-09-09T05:08:46;3.17;;;1.30;;
6665;SDS011;3369;49.906;8.598;2022-09-09T05:11:17;4.33;;;1.60;;
6665;SDS011;3369;49.906;8.598;2022-09-09T05:13:45;6.40;;;1.50;;
6665;SDS011;3369;49.906;8.598;2022-09-09T05:16:11;2.53;;;1.23;;
6665;SDS011;3369;49.906;8.598;2022-09-09T05:18:38;2.30;;;1.30;;
6665;SDS011;3369;49.906;8.598;2022-09-09T05:21:05;4.23;;;1.20;;
6665;SDS011;3369;49.906;8.598;2022-09-09T05:23:31;1.77;;;1.03;;
6665;SDS011;3369;49.906;8.598;2022-09-09T05:25:59;4.97;;;1.57;;
6665;SDS011;3369;49.906;8.598;2022-09-09T05:28:25;2.43;;;1.00;;
6665;SDS011;3369;49.906;8.598;2022-09-09T05:30:55;2.43;;;1.10;;
6665;SDS011;3369;49.906;8.598;2022-09-09T05:33:25;2.60;;;1.40;;
6665;SDS011;3369;49.906;8.598;2022-09-09T05:35:58;6.33;;;1.10;;
6665;SDS011;3369;49.906;8.598;2022-09-09T05:38:26;2.87;;;1.17;;
6665;SDS011;3369;49.906;8.598;2022-09-09T05:40:53;4.30;;;1.40;;
6665;SDS011;3369;49.906;8.598;2022-09-09T05:43:21;2.20;;;1.00;;
6665;SDS011;3369;49.906;8.598;2022-09-09T05:45:47;1.77;;;1.10;;
6665;SDS011;3369;49.906;8.598;2022-09-09T05:48:16;4.40;;;1.50;;
6665;SDS011;3369;49.906;8.598;2022-09-09T05:50:42;4.57;;;1.43;;
6665;SDS011;3369;49.906;8.598;2022-09-09T05:53:09;2.47;;;1.43;;
6665;SDS011;3369;49.906;8.598;2022-09-09T05:55:35;4.20;;;1.50;;
6665;SDS011;3369;49.906;8.598;2022-09-09T05:58:01;4.13;;;1.57;;
6665;SDS011;3369;49.906;8.598;2022-09-09T06:00:27;4.87;;;1.00;;
6665;SDS011;3369;49.906;8.598;2022-09-09T06:02:54;3.30;;;1.20;;
6665;SDS011;3369;49.906;8.598;2022-09-09T06:05:19;1.50;;;1.20;;
6665;SDS011;3369;49.906;8.598;2022-09-09T06:07:47;4.77;;;1.47;;
6665;SDS011;3369;49.906;8.598;2022-09-09T06:10:13;3.27;;;1.23;;
6665;SDS011;3369;49.906;8.598;2022-09-09T06:12:39;5.33;;;1.40;;
6665;SDS011;3369;49.906;8.598;2022-09-09T06:15:05;2.53;;;1.40;;
6665;SDS011;3369;49.906;8.598;2022-09-09T06:17:32;2.47;;;1.00;;
6665;SDS011;3369;49.906;8.598;2022-09-09T06:19:57;1.77;;;1.00;;
6665;SDS011;3369;49.906;8.598;2022-09-09T06:22:23;3.80;;;1.40;;
6665;SDS011;3369;49.906;8.598;2022-09-09T06:24:48;4.20;;;1.07;;
6665;SDS011;3369;49.906;8.598;2022-09-09T06:27:16;3.20;;;1.13;;
6665;SDS011;3369;49.906;8.598;2022-09-09T06:29:41;1.80;;;1.20;;
6665;SDS011;3369;49.906;8.598;2022-09-09T06:32:07;6.77;;;1.30;;
6665;SDS011;3369;49.906;8.598;2022-09-09T06:34:33;5.20;;;0.90;;
6665;SDS011;3369;49.906;8.598;2022-09-09T06:37:00;2.30;;;1.00;;
6665;SDS011;3369;49.906;8.598;2022-09-09T06:39:26;3.53;;;1.37;;
6665;SDS011;3369;49.906;8.598;2022-09-09T06:41:51;2.13;;;0.93;;
6665;SDS011;3369;49.906;8.598;2022-09-09T06:44:18;4.63;;;1.80;;
6665;SDS011;3369;49.906;8.598;2022-09-09T06:46:44;2.53;;;0.97;;
6665;SDS011;3369;49.906;8.598;2022-09-09T06:49:13;1.57;;;0.83;;
6665;SDS011;3369;49.906;8.598;2022-09-09T06:51:39;4.07;;;1.20;;
6665;SDS011;3369;49.906;8.598;2022-09-09T06:54:07;3.00;;;1.00;;
6665;SDS011;3369;49.906;8.598;2022-09-09T06:56:42;2.53;;;1.13;;
6665;SDS011;3369;49.906;8.598;2022-09-09T06:59:09;1.93;;;1.10;;
6665;SDS011;3369;49.906;8.598;2022-09-09T07:01:40;2.13;;;1.10;;
6665;SDS011;3369;49.906;8.598;2022-09-09T07:04:12;1.77;;;1.00;;
6665;SDS011;3369;49.906;8.598;2022-09-09T07:06:39;2.40;;;1.03;;
6665;SDS011;3369;49.906;8.598;2022-09-09T07:09:10;2.53;;;1.20;;
6665;SDS011;3369;49.906;8.598;2022-09-09T07:11:42;3.17;;;1.10;;
6665;SDS011;3369;49.906;8.598;2022-09-09T07:14:13;2.27;;;1.40;;
6665;SDS011;3369;49.906;8.598;2022-09-09T07:16:43;2.03;;;0.90;;
6665;SDS011;3369;49.906;8.598;2022-09-09T07:19:10;4.43;;;1.60;;
6665;SDS011;3369;49.906;8.598;2022-09-09T07:21:37;2.10;;;1.00;;
6665;SDS011;3369;49.906;8.598;2022-09-09T07:24:05;5.40;;;1.47;;
6665;SDS011;3369;49.906;8.598;2022-09-09T07:26:32;1.80;;;0.97;;
6665;SDS011;3369;49.906;8.598;2022-09-09T07:28:59;2.30;;;1.07;;
6665;SDS011;3369;49.906;8.598;2022-09-09T07:31:32;3.50;;;1.37;;
6665;SDS011;3369;49.906;8.598;2022-09-09T07:34:01;3.77;;;1.37;;
6665;SDS011;3369;49.906;8.598;2022-09-09T07:36:37;7.70;;;1.70;;
6665;SDS011;3369;49.906;8.598;2022-09-09T07:39:05;2.43;;;1.27;;
6665;SDS011;3369;49.906;8.598;2022-09-09T07:41:36;4.00;;;1.30;;
6665;SDS011;3369;49.906;8.598;2022-09-09T07:44:05;2.27;;;1.00;;
6665;SDS011;3369;49.906;8.598;2022-09-09T07:46:36;2.90;;;1.10;;
6665;SDS011;3369;49.906;8.598;2022-09-09T07:49:02;2.77;;;1.03;;
6665;SDS011;3369;49.906;8.598;2022-09-09T07:51:29;1.97;;;1.03;;
6665;SDS011;3369;49.906;8.598;2022-09-09T07:54:01;3.50;;;1.30;;
6665;SDS011;3369;49.906;8.598;2022-09-09T07:56:28;3.50;;;1.30;;
6665;SDS011;3369;49.906;8.598;2022-09-09T07:58:55;4.63;;;1.00;;
6665;SDS011;3369;49.906;8.598;2022-09-09T08:01:28;4.13;;;1.30;;
6665;SDS011;3369;49.906;8.598;2022-09-09T08:06:29;3.97;;;1.00;;
6665;SDS011;3369;49.906;8.598;2022-09-09T08:08:58;4.00;;;1.00;;
6665;SDS011;3369;49.906;8.598;2022-09-09T08:11:24;3.67;;;1.30;;
6665;SDS011;3369;49.906;8.598;2022-09-09T08:13:51;3.80;;;1.03;;
6665;SDS011;3369;49.906;8.598;2022-09-09T08:16:19;3.17;;;1.20;;
6665;SDS011;3369;49.906;8.598;2022-09-09T08:18:49;3.33;;;1.03;;
6665;SDS011;3369;49.906;8.598;2022-09-09T08:21:23;4.23;;;1.57;;
6665;SDS011;3369;49.906;8.598;2022-09-09T08:23:53;2.93;;;1.07;;
6665;SDS011;3369;49.906;8.598;2022-09-09T08:26:21;2.43;;;1.00;;
6665;SDS011;3369;49.906;8.598;2022-09-09T08:28:59;2.87;;;1.30;;
6665;SDS011;3369;49.906;8.598;2022-09-09T08:31:30;5.20;;;1.30;;
6665;SDS011;3369;49.906;8.598;2022-09-09T08:33:58;7.70;;;1.40;;
6665;SDS011;3369;49.906;8.598;2022-09-09T08:36:26;3.77;;;1.40;;
6665;SDS011;3369;49.906;8.598;2022-09-09T08:38:54;3.47;;;1.30;;
6665;SDS011;3369;49.906;8.598;2022-09-09T08:44:31;6.27;;;1.10;;
6665;SDS011;3369;49.906;8.598;2022-09-09T08:50:37;4.63;;;1.20;;
6665;SDS011;3369;49.906;8.598;2022-09-09T09:09:02;4.27;;;1.07;;
6665;SDS011;3369;49.906;8.598;2022-09-09T09:11:41;4.73;;;1.53;;
6665;SDS011;3369;49.906;8.598;2022-09-09T09:14:22;3.77;;;1.93;;
6665;SDS011;3369;49.906;8.598;2022-09-09T09:19:39;2.93;;;1.10;;
6665;SDS011;3369;49.906;8.598;2022-09-09T09:22:13;3.83;;;1.00;;
6665;SDS011;3369;49.906;8.598;2022-09-09T09:24:50;6.57;;;1.30;;
6665;SDS011;3369;49.906;8.598;2022-09-09T09:27:40;3.33;;;1.37;;
6665;SDS011;3369;49.906;8.598;2022-09-09T09:30:16;4.97;;;1.30;;
6665;SDS011;3369;49.906;8.598;2022-09-09T09:32:52;4.07;;;1.73;;
6665;SDS011;3369;49.906;8.598;2022-09-09T09:35:21;5.90;;;1.40;;
6665;SDS011;3369;49.906;8.598;2022-09-09T09:37:47;3.70;;;1.30;;
6665;SDS011;3369;49.906;8.598;2022-09-09T09:40:14;5.57;;;1.50;;
6665;SDS011;3369;49.906;8.598;2022-09-09T09:42:57;9.67;;;1.57;;
6665;SDS011;3369;49.906;8.598;2022-09-09T09:48:08;2.90;;;1.03;;
6665;SDS011;3369;49.906;8.598;2022-09-09T09:50:35;7.47;;;1.40;;
6665;SDS011;3369;49.906;8.598;2022-09-09T09:53:36;4.87;;;1.77;;
6665;SDS011;3369;49.906;8.598;2022-09-09T09:56:05;3.77;;;1.40;;
6665;SDS011;3369;49.906;8.598;2022-09-09T09:58:39;7.83;;;1.73;;
6665;SDS011;3369;49.906;8.598;2022-09-09T10:01:25;6.00;;;1.60;;
6665;SDS011;3369;49.906;8.598;2022-09-09T10:03:59;3.53;;;1.10;;
6665;SDS011;3369;49.906;8.598;2022-09-09T10:06:41;4.50;;;1.60;;
6665;SDS011;3369;49.906;8.598;2022-09-09T10:09:26;4.70;;;1.47;;
6665;SDS011;3369;49.906;8.598;2022-09-09T10:15:06;4.67;;;1.10;;
6665;SDS011;3369;49.906;8.598;2022-09-09T10:18:02;8.03;;;1.20;;
6665;SDS011;3369;49.906;8.598;2022-09-09T10:33:28;4.20;;;1.40;;
6665;SDS011;3369;49.906;8.598;2022-09-09T10:38:47;1.97;;;1.00;;
6665;SDS011;3369;49.906;8.598;2022-09-09T10:46:53;3.93;;;1.27;;
6665;SDS011;3369;49.906;8.598;2022-09-09T10:55:26;2.97;;;0.93;;
6665;SDS011;3369;49.906;8.598;2022-09-09T10:57:58;10.37;;;1.30;;
6665;SDS011;3369;49.906;8.598;2022-09-09T11:00:35;1.97;;;0.83;;
6665;SDS011;3369;49.906;8.598;2022-09-09T11:03:20;4.03;;;1.10;;
6665;SDS011;3369;49.906;8.598;2022-09-09T11:08:19;3.93;;;1.00;;
6665;SDS011;3369;49.906;8.598;2022-09-09T11:13:30;4.90;;;1.07;;
6665;SDS011;3369;49.906;8.598;2022-09-09T11:16:00;3.20;;;0.90;;
6665;SDS011;3369;49.906;8.598;2022-09-09T11:18:31;4.60;;;1.60;;
6665;SDS011;3369;49.906;8.598;2022-09-09T11:21:02;5.13;;;1.60;;
6665;SDS011;3369;49.906;8.598;2022-09-09T11:24:06;5.23;;;1.30;;
6665;SDS011;3369;49.906;8.598;2022-09-09T11:26:38;4.10;;;0.97;;
6665;SDS011;3369;49.906;8.598;2022-09-09T11:40:32;3.30;;;0.97;;
6665;SDS011;3369;49.906;8.598;2022-09-09T11:43:05;3.93;;;1.00;;
6665;SDS011;3369;49.906;8.598;2022-09-09T11:45:37;2.50;;;1.03;;
6665;SDS011;3369;49.906;8.598;2022-09-09T11:48:04;2.13;;;1.10;;
6665;SDS011;3369;49.906;8.598;2022-09-09T11:50:34;4.47;;;1.47;;
6665;SDS011;3369;49.906;8.598;2022-09-09T11:53:05;2.17;;;1.13;;
6665;SDS011;3369;49.906;8.598;2022-09-09T11:55:38;3.57;;;1.20;;
6665;SDS011;3369;49.906;8.598;2022-09-09T11:58:05;2.83;;;1.00;;
6665;SDS011;3369;49.906;8.598;2022-09-09T12:00:44;5.77;;;1.43;;
6665;SDS011;3369;49.906;8.598;2022-09-09T12:06:12;2.23;;;1.00;;
6665;SDS011;3369;49.906;8.598;2022-09-09T12:08:46;4.47;;;1.23;;
6665;SDS011;3369;49.906;8.598;2022-09-09T12:11:25;2.87;;;1.10;;
6665;SDS011;3369;49.906;8.598;2022-09-09T12:13:56;4.73;;;1.20;;
6665;SDS011;3369;49.906;8.598;2022-09-09T12:16:31;3.83;;;1.00;;
6665;SDS011;3369;49.906;8.598;2022-09-09T12:19:06;5.20;;;1.47;;
6665;SDS011;3369;49.906;8.598;2022-09-09T12:21:44;6.57;;;1.47;;
6665;SDS011;3369;49.906;8.598;2022-09-09T12:24:43;3.43;;;1.30;;
6665;SDS011;3369;49.906;8.598;2022-09-09T12:27:21;3.13;;;1.10;;
6665;SDS011;3369;49.906;8.598;2022-09-09T12:29:59;4.70;;;1.10;;
6665;SDS011;3369;49.906;8.598;2022-09-09T12:32:29;2.40;;;1.03;;
6665;SDS011;3369;49.906;8.598;2022-09-09T12:37:46;3.20;;;1.03;;
6665;SDS011;3369;49.906;8.598;2022-09-09T12:40:40;2.77;;;0.87;;
6665;SDS011;3369;49.906;8.598;2022-09-09T12:43:20;4.23;;;1.30;;
6665;SDS011;3369;49.906;8.598;2022-09-09T12:45:47;6.53;;;1.37;;
6665;SDS011;3369;49.906;8.598;2022-09-09T12:48:21;2.03;;;0.63;;
6665;SDS011;3369;49.906;8.598;2022-09-09T12:50:53;1.57;;;0.60;;
6665;SDS011;3369;49.906;8.598;2022-09-09T12:53:30;3.37;;;0.90;;
6665;SDS011;3369;49.906;8.598;2022-09-09T12:56:06;2.40;;;0.90;;
6665;SDS011;3369;49.906;8.598;2022-09-09T12:58:38;3.80;;;0.93;;
6665;SDS011;3369;49.906;8.598;2022-09-09T13:01:05;2.00;;;0.80;;
6665;SDS011;3369;49.906;8.598;2022-09-09T13:03:32;0.57;;;0.47;;
6665;SDS011;3369;49.906;8.598;2022-09-09T13:05:59;2.13;;;0.30;;
6665;SDS011;3369;49.906;8.598;2022-09-09T13:08:36;0.43;;;0.40;;
6665;SDS011;3369;49.906;8.598;2022-09-09T13:11:04;1.10;;;0.50;;
6665;SDS011;3369;49.906;8.598;2022-09-09T13:13:39;1.33;;;0.80;;
6665;SDS011;3369;49.906;8.598;2022-09-09T13:16:53;0.40;;;0.40;;
6665;SDS011;3369;49.906;8.598;2022-09-09T13:19:07;1.27;;;0.30;;
6665;SDS011;3369;49.906;8.598;2022-09-09T13:21:39;0.50;;;0.20;;
6665;SDS011;3369;49.906;8.598;2022-09-09T13:24:06;0.33;;;0.30;;
6665;SDS011;3369;49.906;8.598;2022-09-09T13:27:03;1.87;;;0.30;;
6665;SDS011;3369;49.906;8.598;2022-09-09T13:29:50;0.83;;;0.30;;
6665;SDS011;3369;49.906;8.598;2022-09-09T13:32:20;0.97;;;0.40;;
6665;SDS011;3369;49.906;8.598;2022-09-09T13:34:53;0.30;;;0.30;;
6665;SDS011;3369;49.906;8.598;2022-09-09T13:37:26;0.90;;;0.50;;
6665;SDS011;3369;49.906;8.598;2022-09-09T13:40:03;0.50;;;0.30;;
6665;SDS011;3369;49.906;8.598;2022-09-09T13:42:35;1.60;;;0.40;;
6665;SDS011;3369;49.906;8.598;2022-09-09T13:45:04;0.80;;;0.43;;
6665;SDS011;3369;49.906;8.598;2022-09-09T13:47:31;1.43;;;0.50;;
6665;SDS011;3369;49.906;8.598;2022-09-09T13:50:09;2.10;;;0.50;;
6665;SDS011;3369;49.906;8.598;2022-09-09T14:13:02;1.90;;;0.50;;
6665;SDS011;3369;49.906;8.598;2022-09-09T14:15:28;1.10;;;0.43;;
6665;SDS011;3369;49.906;8.598;2022-09-09T14:17:54;0.33;;;0.33;;
6665;SDS011;3369;49.906;8.598;2022-09-09T14:20:20;1.67;;;0.50;;
6665;SDS011;3369;49.906;8.598;2022-09-09T14:22:46;0.70;;;0.50;;
6665;SDS011;3369;49.906;8.598;2022-09-09T14:25:12;0.93;;;0.37;;
6665;SDS011;3369;49.906;8.598;2022-09-09T14:27:38;1.70;;;0.60;;
6665;SDS011;3369;49.906;8.598;2022-09-09T14:30:05;0.93;;;0.57;;
6665;SDS011;3369;49.906;8.598;2022-09-09T14:32:31;2.40;;;0.73;;
6665;SDS011;3369;49.906;8.598;2022-09-09T14:34:57;3.43;;;0.70;;
6665;SDS011;3369;49.906;8.598;2022-09-09T14:37:23;2.03;;;0.80;;
6665;SDS011;3369;49.906;8.598;2022-09-09T14:39:49;3.53;;;0.90;;
6665;SDS011;3369;49.906;8.598;2022-09-09T14:42:15;3.50;;;0.97;;
6665;SDS011;3369;49.906;8.598;2022-09-09T14:44:41;4.03;;;0.87;;
6665;SDS011;3369;49.906;8.598;2022-09-09T14:47:07;4.13;;;1.00;;
6665;SDS011;3369;49.906;8.598;2022-09-09T14:49:36;1.80;;;0.77;;
6665;SDS011;3369;49.906;8.598;2022-09-09T14:52:02;1.23;;;0.70;;
6665;SDS011;3369;49.906;8.598;2022-09-09T14:54:28;2.63;;;0.83;;
6665;SDS011;3369;49.906;8.598;2022-09-09T14:56:54;3.90;;;1.10;;
6665;SDS011;3369;49.906;8.598;2022-09-09T14:59:22;2.87;;;0.83;;
6665;SDS011;3369;49.906;8.598;2022-09-09T15:01:47;4.33;;;0.90;;
6665;SDS011;3369;49.906;8.598;2022-09-09T15:04:13;3.60;;;0.90;;
6665;SDS011;3369;49.906;8.598;2022-09-09T15:06:43;0.90;;;0.70;;
6665;SDS011;3369;49.906;8.598;2022-09-09T15:09:13;1.13;;;0.67;;
6665;SDS011;3369;49.906;8.598;2022-09-09T15:11:39;2.50;;;1.00;;
6665;SDS011;3369;49.906;8.598;2022-09-09T15:14:05;1.10;;;0.77;;
6665;SDS011;3369;49.906;8.598;2022-09-09T15:16:32;2.60;;;0.97;;
6665;SDS011;3369;49.906;8.598;2022-09-09T15:18:59;2.03;;;0.60;;
6665;SDS011;3369;49.906;8.598;2022-09-09T15:21:27;1.93;;;0.90;;
6665;SDS011;3369;49.906;8.598;2022-09-09T15:23:54;7.50;;;2.80;;
6665;SDS011;3369;49.906;8.598;2022-09-09T15:26:21;4.43;;;2.90;;
6665;SDS011;3369;49.906;8.598;2022-09-09T15:28:47;3.43;;;2.17;;
6665;SDS011;3369;49.906;8.598;2022-09-09T15:31:24;3.97;;;2.13;;
6665;SDS011;3369;49.906;8.598;2022-09-09T15:33:54;4.40;;;1.90;;
6665;SDS011;3369;49.906;8.598;2022-09-09T15:36:31;2.40;;;1.40;;
6665;SDS011;3369;49.906;8.598;2022-09-09T15:39:01;1.97;;;1.00;;
6665;SDS011;3369;49.906;8.598;2022-09-09T15:41:28;1.20;;;0.57;;
6665;SDS011;3369;49.906;8.598;2022-09-09T15:43:56;3.10;;;0.83;;
6665;SDS011;3369;49.906;8.598;2022-09-09T15:46:32;1.97;;;0.90;;
6665;SDS011;3369;49.906;8.598;2022-09-09T15:49:12;3.53;;;0.80;;
6665;SDS011;3369;49.906;8.598;2022-09-09T15:51:47;1.90;;;0.63;;
6665;SDS011;3369;49.906;8.598;2022-09-09T15:54:20;2.50;;;0.70;;
6665;SDS011;3369;49.906;8.598;2022-09-09T15:56:52;3.70;;;0.70;;
6665;SDS011;3369;49.906;8.598;2022-09-09T15:59:21;2.40;;;0.70;;
6665;SDS011;3369;49.906;8.598;2022-09-09T16:01:50;2.23;;;0.90;;
6665;SDS011;3369;49.906;8.598;2022-09-09T16:04:17;1.67;;;0.70;;
6665;SDS011;3369;49.906;8.598;2022-09-09T16:06:54;3.50;;;0.70;;
6665;SDS011;3369;49.906;8.598;2022-09-09T16:09:23;1.17;;;0.67;;
6665;SDS011;3369;49.906;8.598;2022-09-09T16:11:49;1.33;;;0.73;;
6665;SDS011;3369;49.906;8.598;2022-09-09T16:14:16;2.73;;;1.00;;
6665;SDS011;3369;49.906;8.598;2022-09-09T16:16:42;0.83;;;0.70;;
6665;SDS011;3369;49.906;8.598;2022-09-09T16:19:09;1.73;;;0.90;;
6665;SDS011;3369;49.906;8.598;2022-09-09T16:21:41;1.43;;;0.70;;
6665;SDS011;3369;49.906;8.598;2022-09-09T16:24:10;3.00;;;1.40;;
6665;SDS011;3369;49.906;8.598;2022-09-09T16:26:37;1.07;;;0.70;;
6665;SDS011;3369;49.906;8.598;2022-09-09T16:29:05;2.03;;;0.70;;
6665;SDS011;3369;49.906;8.598;2022-09-09T16:31:31;1.37;;;0.50;;
6665;SDS011;3369;49.906;8.598;2022-09-09T16:33:58;1.13;;;0.50;;
6665;SDS011;3369;49.906;8.598;2022-09-09T16:36:24;1.00;;;0.80;;
6665;SDS011;3369;49.906;8.598;2022-09-09T16:38:59;1.73;;;0.57;;
6665;SDS011;3369;49.906;8.598;2022-09-09T16:41:27;1.33;;;0.53;;
6665;SDS011;3369;49.906;8.598;2022-09-09T16:43:58;0.73;;;0.60;;
6665;SDS011;3369;49.906;8.598;2022-09-09T16:46:27;1.60;;;0.80;;
6665;SDS011;3369;49.906;8.598;2022-09-09T16:48:55;1.70;;;0.80;;
6665;SDS011;3369;49.906;8.598;2022-09-09T16:51:22;0.67;;;0.50;;
6665;SDS011;3369;49.906;8.598;2022-09-09T16:53:51;1.90;;;0.77;;
6665;SDS011;3369;49.906;8.598;2022-09-09T16:56:18;1.23;;;0.80;;
6665;SDS011;3369;49.906;8.598;2022-09-09T16:58:50;1.70;;;0.70;;
6665;SDS011;3369;49.906;8.598;2022-09-09T17:01:18;2.40;;;0.73;;
6665;SDS011;3369;49.906;8.598;2022-09-09T17:03:44;2.27;;;0.80;;
6665;SDS011;3369;49.906;8.598;2022-09-09T17:06:10;3.10;;;0.80;;
6665;SDS011;3369;49.906;8.598;2022-09-09T17:08:38;1.20;;;0.60;;
6665;SDS011;3369;49.906;8.598;2022-09-09T17:11:11;1.73;;;0.60;;
6665;SDS011;3369;49.906;8.598;2022-09-09T17:13:42;4.53;;;1.20;;
6665;SDS011;3369;49.906;8.598;2022-09-09T17:16:08;1.63;;;0.67;;
6665;SDS011;3369;49.906;8.598;2022-09-09T17:18:35;2.00;;;0.90;;
6665;SDS011;3369;49.906;8.598;2022-09-09T17:21:02;1.57;;;0.70;;
6665;SDS011;3369;49.906;8.598;2022-09-09T17:23:28;0.80;;;0.60;;
6665;SDS011;3369;49.906;8.598;2022-09-09T17:25:58;2.07;;;0.60;;
6665;SDS011;3369;49.906;8.598;2022-09-09T17:28:25;2.17;;;1.13;;
6665;SDS011;3369;49.906;8.598;2022-09-09T17:30:56;1.90;;;1.20;;
6665;SDS011;3369;49.906;8.598;2022-09-09T17:33:30;1.37;;;0.77;;
6665;SDS011;3369;49.906;8.598;2022-09-09T17:35:59;2.20;;;1.00;;
6665;SDS011;3369;49.906;8.598;2022-09-09T17:38:27;2.00;;;0.90;;
6665;SDS011;3369;49.906;8.598;2022-09-09T17:43:34;1.13;;;0.80;;
6665;SDS011;3369;49.906;8.598;2022-09-09T17:48:35;2.90;;;0.80;;
6665;SDS011;3369;49.906;8.598;2022-09-09T17:51:04;0.97;;;0.63;;
6665;SDS011;3369;49.906;8.598;2022-09-09T17:53:38;1.13;;;0.90;;
6665;SDS011;3369;49.906;8.598;2022-09-09T17:56:09;1.53;;;1.03;;
6665;SDS011;3369;49.906;8.598;2022-09-09T17:58:36;4.77;;;1.00;;
6665;SDS011;3369;49.906;8.598;2022-09-09T18:01:06;1.80;;;1.03;;
6665;SDS011;3369;49.906;8.598;2022-09-09T18:03:34;1.07;;;0.90;;
6665;SDS011;3369;49.906;8.598;2022-09-09T18:06:06;5.13;;;1.30;;
6665;SDS011;3369;49.906;8.598;2022-09-09T18:08:34;4.57;;;0.90;;
6665;SDS011;3369;49.906;8.598;2022-09-09T18:11:00;1.90;;;0.97;;
6665;SDS011;3369;49.906;8.598;2022-09-09T18:13:27;3.00;;;1.10;;
6665;SDS011;3369;49.906;8.598;2022-09-09T18:15:53;2.20;;;1.00;;
6665;SDS011;3369;49.906;8.598;2022-09-09T18:18:19;3.00;;;1.20;;
6665;SDS011;3369;49.906;8.598;2022-09-09T18:20:46;1.43;;;0.90;;
6665;SDS011;3369;49.906;8.598;2022-09-09T18:23:23;2.30;;;0.90;;
6665;SDS011;3369;49.906;8.598;2022-09-09T18:25:49;1.47;;;0.93;;